Hangzhou Bay Bridge — 3FMK3 — position and weather

sailwx.info

Track history (hours):
 
Tides and Currents Weather Stations Pressure Air Temp Water Temp Dewpoint Dewpoint Depression Visibility Wind Speed Wind Dir Waves Ship Positions

Hangzhou Bay Bridge

Last reported at 2017-Dec-15 18:35 UTC. Time now 2017-Dec-15 20:03 UTC.
Position N 23°53' E 118°20'.

Length 335 m; draft 8.3 m.

Type: Ship (hazmat cat D). MMSI: 373932000.

Date/timePositionNaut miles runAvg speedWind from/ knotsBaromVisibWave heightAir tempDewpointWater temp
2017-Dec-15 18:35N 23°53' E 118°20'211.9
2017-Dec-15 18:24N 23°55' E 118°20'512.3
2017-Dec-15 18:00N 23°60' E 118°20'612.0
2017-Dec-15 17:30N 24°06' E 118°20'510.9
2017-Dec-15 17:00N 24°11' E 118°18'611.5
2017-Dec-15 16:30N 24°16' E 118°15'611.7
2017-Dec-15 16:00N 24°20' E 118°10'611.5
2017-Dec-15 15:30N 24°24' E 118°06'5 9.9
2017-Dec-15 15:00N 24°26' E 118°01'0 0.8
2017-Dec-15 14:30N 24°27' E 118°01'0 0.0
2017-Dec-15 14:00N 24°27' E 118°01'0 0.0
2017-Dec-15 13:30N 24°27' E 118°01'0 0.0
2017-Dec-15 13:00N 24°27' E 118°01'0 0.0
2017-Dec-15 12:30N 24°27' E 118°01'0 0.1
2017-Dec-15 12:00N 24°27' E 118°01'0 0.1
2017-Dec-15 11:27N 24°27' E 118°01'0 0.0
2017-Dec-15 10:57N 24°27' E 118°01'0 0.0
2017-Dec-15 10:30N 24°27' E 118°01'0 0.1
2017-Dec-15 09:54N 24°27' E 118°01'0 0.1
2017-Dec-15 09:27N 24°27' E 118°01'0 0.0
2017-Dec-15 08:48N 24°27' E 118°01'0 0.0
2017-Dec-15 08:24N 24°27' E 118°01'0 0.0
2017-Dec-15 08:00N 24°27' E 118°01'0 0.0
2017-Dec-15 07:30N 24°27' E 118°01'0 0.0
2017-Dec-15 06:57N 24°27' E 118°01'0 0.0
2017-Dec-15 06:30N 24°27' E 118°01'0 0.0
2017-Dec-15 06:00N 24°27' E 118°01'2 4.5
2017-Dec-15 05:30N 24°26' E 118°03'5 9.8
2017-Dec-15 05:00N 24°23' E 118°07'4 7.5
2017-Dec-15 04:30N 24°20' E 118°10'3 7.0
2017-Dec-15 04:00N 24°18' E 118°13'14 9.6
2017-Dec-15 02:30N 24°06' E 118°22'14 9.0
2017-Dec-15 00:56N 23°54' E 118°30'5 5.9
2017-Dec-15 00:08N 23°58' E 118°31'112 8.3
2017-Dec-14 10:35N 22°35' E 119°52'111.0
2017-Dec-14 10:29N 22°35' E 119°53'511.3
2017-Dec-14 10:00N 22°34' E 119°59'611.2
2017-Dec-14 09:30N 22°33' E 120°05'510.9
2017-Dec-14 09:00N 22°33' E 120°11'511.0
2017-Dec-14 08:30N 22°33' E 120°17'3 5.4
2017-Dec-14 08:00N 22°33' E 120°19'1 1.0
2017-Dec-14 07:27N 22°33' E 120°20'0 0.0
2017-Dec-14 07:00N 22°33' E 120°20'0 0.0
2017-Dec-14 06:27N 22°33' E 120°20'0 0.0
2017-Dec-14 06:00N 22°33' E 120°20'0 0.0
2017-Dec-14 05:30N 22°33' E 120°20'0 0.0
2017-Dec-14 05:00N 22°33' E 120°20'0 0.0
2017-Dec-14 04:30N 22°33' E 120°20'0 0.0
2017-Dec-14 04:00N 22°33' E 120°20'0 0.0
2017-Dec-14 03:30N 22°33' E 120°20'0 0.0
2017-Dec-14 03:00N 22°33' E 120°20'0 0.0
2017-Dec-14 02:27N 22°33' E 120°20'0 0.0
2017-Dec-14 01:57N 22°33' E 120°20'1 1.9
2017-Dec-14 01:30N 22°33' E 120°19'3 6.3
2017-Dec-14 01:01N 22°32' E 120°15'1 2.1
2017-Dec-14 00:30N 22°32' E 120°14'1 2.3
2017-Dec-14 00:00N 22°31' E 120°13'1 1.8
2017-Dec-13 23:30N 22°31' E 120°14'1 0.9
2017-Dec-13 22:59N 22°30' E 120°14'0 0.3
2017-Dec-13 22:28N 22°30' E 120°14'0 0.2
2017-Dec-13 21:58N 22°30' E 120°14'0 0.1
2017-Dec-13 21:28N 22°30' E 120°14'0 0.1
2017-Dec-13 20:58N 22°30' E 120°14'0 0.0
2017-Dec-13 20:29N 22°30' E 120°14'0 0.1
2017-Dec-13 19:58N 22°30' E 120°14'0 0.0
2017-Dec-13 19:28N 22°30' E 120°14'0 0.0
2017-Dec-13 18:58N 22°30' E 120°14'0 0.0
2017-Dec-13 18:28N 22°30' E 120°14'0 0.0
2017-Dec-13 17:58N 22°30' E 120°14'0 0.1
2017-Dec-13 17:28N 22°30' E 120°14'0 0.0
2017-Dec-13 16:58N 22°30' E 120°14'0 0.0
2017-Dec-13 16:28N 22°30' E 120°14'0 0.0
2017-Dec-13 15:58N 22°30' E 120°14'0 0.0
2017-Dec-13 15:28N 22°30' E 120°14'0 0.1
2017-Dec-13 14:58N 22°30' E 120°14'0 0.1
2017-Dec-13 14:28N 22°30' E 120°14'0 0.0
2017-Dec-13 13:59N 22°30' E 120°14'0 0.2
2017-Dec-13 13:28N 22°31' E 120°14'0 0.2
2017-Dec-13 12:58N 22°31' E 120°14'0 0.0
2017-Dec-13 12:28N 22°31' E 120°14'0 0.0
2017-Dec-13 11:58N 22°31' E 120°14'0 0.0
2017-Dec-13 11:29N 22°31' E 120°14'0 0.0
2017-Dec-13 10:58N 22°31' E 120°14'0 0.0
2017-Dec-13 10:28N 22°31' E 120°14'0 0.0
2017-Dec-13 09:58N 22°31' E 120°14'0 0.0
2017-Dec-13 09:28N 22°31' E 120°14'0 0.0
2017-Dec-13 08:58N 22°31' E 120°14'0 0.1
2017-Dec-13 08:28N 22°31' E 120°14'0 0.1
2017-Dec-13 07:58N 22°31' E 120°14'0 0.0
2017-Dec-13 07:28N 22°30' E 120°14'0 0.0
2017-Dec-13 06:58N 22°30' E 120°14'0 0.0
2017-Dec-13 06:28N 22°30' E 120°14'0 0.0
2017-Dec-13 05:58N 22°30' E 120°14'0 0.0
2017-Dec-13 05:28N 22°30' E 120°14'0 0.1
2017-Dec-13 04:58N 22°30' E 120°14'0 0.0
2017-Dec-13 04:28N 22°30' E 120°14'0 0.0
2017-Dec-13 03:58N 22°30' E 120°14'0 0.1
2017-Dec-13 03:28N 22°30' E 120°14'0 0.0
2017-Dec-13 02:58N 22°30' E 120°14'0 0.0
2017-Dec-13 02:28N 22°30' E 120°14'0 0.2
2017-Dec-13 01:58N 22°30' E 120°14'0 0.0
2017-Dec-13 01:28N 22°30' E 120°14'0 0.1
2017-Dec-13 00:58N 22°30' E 120°14'0 0.0
2017-Dec-13 00:28N 22°30' E 120°14'0 0.1
2017-Dec-12 23:58N 22°30' E 120°14'0 0.1
2017-Dec-12 23:28N 22°30' E 120°14'0 0.0
2017-Dec-12 22:58N 22°30' E 120°14'0 0.0
2017-Dec-12 22:28N 22°30' E 120°14'0 0.1
2017-Dec-12 21:52N 22°30' E 120°14'0 0.1
2017-Dec-12 21:28N 22°30' E 120°14'0 0.2
2017-Dec-12 20:58N 22°30' E 120°14'0 0.1
2017-Dec-12 20:28N 22°30' E 120°14'0 0.1
2017-Dec-12 19:58N 22°30' E 120°14'0 0.0
2017-Dec-12 19:28N 22°30' E 120°14'0 0.1
2017-Dec-12 18:58N 22°30' E 120°14'0 0.0
2017-Dec-12 18:28N 22°30' E 120°14'0 0.1
2017-Dec-12 17:58N 22°30' E 120°14'0 0.0
2017-Dec-12 17:28N 22°30' E 120°14'0 0.0
2017-Dec-12 16:58N 22°30' E 120°14'0 0.0
2017-Dec-12 16:28N 22°30' E 120°14'0 0.0
2017-Dec-12 15:58N 22°30' E 120°14'0 0.0
2017-Dec-12 15:28N 22°30' E 120°14'0 0.1
2017-Dec-12 14:58N 22°30' E 120°14'0 0.0
2017-Dec-12 14:28N 22°30' E 120°14'0 0.0
2017-Dec-12 13:58N 22°30' E 120°14'0 0.1
2017-Dec-12 13:22N 22°30' E 120°14'0 0.1
2017-Dec-12 12:58N 22°30' E 120°14'0 0.2
2017-Dec-12 12:16N 22°30' E 120°14'0 0.2
2017-Dec-12 11:52N 22°30' E 120°14'0 0.0
2017-Dec-12 11:22N 22°30' E 120°14'0 0.2
2017-Dec-12 10:58N 22°30' E 120°14'0 0.0
2017-Dec-12 10:28N 22°30' E 120°14'0 0.1
2017-Dec-12 09:58N 22°30' E 120°14'0 0.0
2017-Dec-12 09:28N 22°30' E 120°14'0 0.1
2017-Dec-12 08:52N 22°30' E 120°14'0 0.1
2017-Dec-12 08:28N 22°30' E 120°14'0 0.1
2017-Dec-12 07:58N 22°30' E 120°14'0 0.1
2017-Dec-12 07:28N 22°30' E 120°14'0 0.0
2017-Dec-12 06:58N 22°30' E 120°14'0 0.0
2017-Dec-12 06:28N 22°30' E 120°14'0 0.0
2017-Dec-12 05:58N 22°30' E 120°14'0 0.1
2017-Dec-12 05:28N 22°30' E 120°14'0 0.0
2017-Dec-12 04:58N 22°30' E 120°14'0 0.1
2017-Dec-12 04:28N 22°30' E 120°14'0 0.1
2017-Dec-12 03:58N 22°30' E 120°14'0 0.0
2017-Dec-12 03:28N 22°30' E 120°14'0 0.0
2017-Dec-12 02:55N 22°30' E 120°14'0 0.0
2017-Dec-12 02:28N 22°30' E 120°14'0 0.0
2017-Dec-12 01:58N 22°30' E 120°14'0 0.1
2017-Dec-12 01:28N 22°30' E 120°14'0 0.0
2017-Dec-12 00:58N 22°30' E 120°14'0 0.0
2017-Dec-12 00:28N 22°30' E 120°14'0 0.0
2017-Dec-11 23:58N 22°30' E 120°14'0 0.0
2017-Dec-11 23:28N 22°30' E 120°14'0 0.2
2017-Dec-11 22:58N 22°30' E 120°14'0 0.1
2017-Dec-11 22:28N 22°30' E 120°14'0 0.1
2017-Dec-11 21:58N 22°31' E 120°14'0 0.0
2017-Dec-11 21:28N 22°31' E 120°14'0 0.1
2017-Dec-11 20:58N 22°30' E 120°14'0 0.3
2017-Dec-11 20:28N 22°30' E 120°14'0 0.2
2017-Dec-11 19:58N 22°30' E 120°14'0 0.1
2017-Dec-11 19:22N 22°30' E 120°14'0 0.0
2017-Dec-11 18:52N 22°30' E 120°14'0 0.0
2017-Dec-11 18:28N 22°30' E 120°14'0 0.0
2017-Dec-11 17:49N 22°30' E 120°14'0 0.0
2017-Dec-11 17:28N 22°30' E 120°14'0 0.0
2017-Dec-11 16:58N 22°30' E 120°14'0 0.0
2017-Dec-11 16:28N 22°30' E 120°14'0 0.1
2017-Dec-11 15:58N 22°30' E 120°14'0 0.0
2017-Dec-11 15:28N 22°30' E 120°14'0 0.1
2017-Dec-11 14:58N 22°30' E 120°14'0 0.0
2017-Dec-11 14:22N 22°30' E 120°14'0 0.0
2017-Dec-11 13:58N 22°30' E 120°14'0 0.0
2017-Dec-11 13:25N 22°30' E 120°14'0 0.0
2017-Dec-11 12:58N 22°30' E 120°14'0 0.0
2017-Dec-11 12:28N 22°30' E 120°14'0 0.0
2017-Dec-11 11:58N 22°30' E 120°14'0 0.1
2017-Dec-11 11:28N 22°30' E 120°14'0 0.1
2017-Dec-11 10:58N 22°30' E 120°14'0 0.0
2017-Dec-11 10:28N 22°30' E 120°14'0 0.0
2017-Dec-11 09:58N 22°30' E 120°14'0 0.3
2017-Dec-11 09:28N 22°30' E 120°14'0 0.3
2017-Dec-11 08:58N 22°31' E 120°14'0 0.0
2017-Dec-11 08:28N 22°31' E 120°14'0 0.0
2017-Dec-11 07:40N 22°31' E 120°14'0 0.0
2017-Dec-11 07:28N 22°31' E 120°14'0 0.1
2017-Dec-11 06:58N 22°31' E 120°14'0 0.1
2017-Dec-11 06:28N 22°31' E 120°14'0 0.1
2017-Dec-11 05:58N 22°31' E 120°14'0 0.1
2017-Dec-11 05:28N 22°30' E 120°14'0 0.1
2017-Dec-11 04:58N 22°30' E 120°14'0 0.1
2017-Dec-11 04:28N 22°30' E 120°14'0 0.3
2017-Dec-11 03:58N 22°30' E 120°14'0 0.1
2017-Dec-11 03:28N 22°30' E 120°14'0 0.0
2017-Dec-11 02:58N 22°30' E 120°14'0 0.0
2017-Dec-11 02:28N 22°30' E 120°14'0 0.0
2017-Dec-11 01:55N 22°30' E 120°14'0 0.0
2017-Dec-11 01:28N 22°30' E 120°14'0 0.0
2017-Dec-11 00:58N 22°30' E 120°14'0 0.0
2017-Dec-11 00:28N 22°30' E 120°14'0 0.1
2017-Dec-10 23:58N 22°30' E 120°14'0 0.0
2017-Dec-10 23:28N 22°30' E 120°14'0 0.0
2017-Dec-10 22:58N 22°30' E 120°14'0 0.0
2017-Dec-10 22:28N 22°30' E 120°14'0 0.1
2017-Dec-10 21:58N 22°30' E 120°14'0 0.1
2017-Dec-10 21:28N 22°30' E 120°14'0 0.0
2017-Dec-10 20:58N 22°30' E 120°14'0 0.0
2017-Dec-10 20:28N 22°30' E 120°14'0 0.0
2017-Dec-10 19:58N 22°30' E 120°14'0 0.0
2017-Dec-10 19:28N 22°30' E 120°14'0 0.0
2017-Dec-10 18:58N 22°30' E 120°14'0 0.0
2017-Dec-10 18:28N 22°30' E 120°14'0 0.0
2017-Dec-10 17:58N 22°30' E 120°14'0 0.0
2017-Dec-10 17:29N 22°30' E 120°14'0 0.0
2017-Dec-10 16:58N 22°30' E 120°14'0 0.0
2017-Dec-10 16:29N 22°30' E 120°14'0 0.1
2017-Dec-10 15:58N 22°30' E 120°14'0 0.0
2017-Dec-10 15:28N 22°30' E 120°14'0 0.0
2017-Dec-10 14:58N 22°30' E 120°14'0 0.1
2017-Dec-10 14:28N 22°30' E 120°14'0 0.0
2017-Dec-10 13:56N 22°30' E 120°14'0 0.0
2017-Dec-10 13:29N 22°30' E 120°14'0 0.0
2017-Dec-10 12:59N 22°30' E 120°14'0 0.0
2017-Dec-10 12:28N 22°30' E 120°14'0 0.0
2017-Dec-10 11:58N 22°30' E 120°14'0 0.0
2017-Dec-10 11:28N 22°30' E 120°14'0 0.0
2017-Dec-10 10:58N 22°30' E 120°14'0 0.0
2017-Dec-10 10:28N 22°30' E 120°14'0 0.0
2017-Dec-10 09:58N 22°30' E 120°14'0 0.1
2017-Dec-10 09:29N 22°30' E 120°14'0 0.0
2017-Dec-10 08:58N 22°30' E 120°14'0 0.0
2017-Dec-10 08:28N 22°30' E 120°14'0 0.0
2017-Dec-10 07:55N 22°30' E 120°14'0 0.1
2017-Dec-10 07:30N 22°30' E 120°14'0 0.1
2017-Dec-10 06:58N 22°30' E 120°14'0 0.0
2017-Dec-10 06:28N 22°30' E 120°14'0 0.0
2017-Dec-10 05:58N 22°30' E 120°14'0 0.0
2017-Dec-10 05:28N 22°30' E 120°14'0 0.0
2017-Dec-10 04:58N 22°30' E 120°14'0 0.0
2017-Dec-10 04:28N 22°30' E 120°14'0 0.0
2017-Dec-10 03:58N 22°30' E 120°14'0 0.0
2017-Dec-10 03:28N 22°30' E 120°14'0 0.1
2017-Dec-10 02:58N 22°30' E 120°14'0 0.0
2017-Dec-10 02:28N 22°30' E 120°14'0 0.0
2017-Dec-10 01:58N 22°30' E 120°14'0 0.0
2017-Dec-10 01:28N 22°30' E 120°14'0 0.0
2017-Dec-10 00:58N 22°30' E 120°14'0 0.1
2017-Dec-10 00:28N 22°30' E 120°14'0 0.0
2017-Dec-09 23:58N 22°30' E 120°14'0 0.0
2017-Dec-09 23:28N 22°30' E 120°14'0 0.0
2017-Dec-09 22:58N 22°30' E 120°14'0 0.0
2017-Dec-09 22:28N 22°30' E 120°14'0 0.0
2017-Dec-09 21:58N 22°30' E 120°14'0 0.0
2017-Dec-09 21:29N 22°30' E 120°14'0 0.1
2017-Dec-09 20:58N 22°30' E 120°14'0 0.0
2017-Dec-09 20:28N 22°30' E 120°14'0 0.0
2017-Dec-09 19:58N 22°30' E 120°14'0 0.1
2017-Dec-09 19:28N 22°30' E 120°14'0 0.0
2017-Dec-09 18:58N 22°30' E 120°14'0 0.0
2017-Dec-09 18:28N 22°30' E 120°14'0 0.1
2017-Dec-09 17:58N 22°30' E 120°14'0 0.0
2017-Dec-09 17:28N 22°30' E 120°14'0 0.1
2017-Dec-09 16:58N 22°30' E 120°14'0 0.0
2017-Dec-09 16:28N 22°30' E 120°14'0 0.1
2017-Dec-09 15:59N 22°30' E 120°14'0 0.0
2017-Dec-09 15:28N 22°30' E 120°14'0 0.0
2017-Dec-09 14:58N 22°30' E 120°14'0 0.1
2017-Dec-09 14:25N 22°30' E 120°14'0 0.1
2017-Dec-09 13:58N 22°30' E 120°14'0 0.0
2017-Dec-09 13:28N 22°30' E 120°14'0 0.0
2017-Dec-09 12:59N 22°30' E 120°14'0 0.0
2017-Dec-09 12:28N 22°30' E 120°14'0 0.0
2017-Dec-09 11:58N 22°30' E 120°14'0 0.1
2017-Dec-09 11:28N 22°30' E 120°14'0 0.1
2017-Dec-09 10:58N 22°30' E 120°14'0 0.0
2017-Dec-09 10:28N 22°30' E 120°14'0 0.0
2017-Dec-09 09:58N 22°30' E 120°14'0 0.0
2017-Dec-09 09:28N 22°30' E 120°14'0 0.1
2017-Dec-09 08:58N 22°30' E 120°14'0 0.0
2017-Dec-09 08:28N 22°30' E 120°14'0 0.0
2017-Dec-09 07:58N 22°30' E 120°14'0 0.0
2017-Dec-09 07:28N 22°30' E 120°14'0 0.0
2017-Dec-09 06:58N 22°30' E 120°14'0 0.2
2017-Dec-09 06:28N 22°30' E 120°14'0 0.1
2017-Dec-09 05:58N 22°30' E 120°14'0 0.2
2017-Dec-09 05:28N 22°30' E 120°14'0 0.2
2017-Dec-09 04:58N 22°30' E 120°14'0 0.2
2017-Dec-09 04:28N 22°30' E 120°14'0 0.1
2017-Dec-09 03:58N 22°30' E 120°14'0 0.2
2017-Dec-09 03:28N 22°31' E 120°14'0 0.2
2017-Dec-09 02:58N 22°31' E 120°14'0 0.1
2017-Dec-09 02:28N 22°31' E 120°14'0 0.1
2017-Dec-09 01:58N 22°31' E 120°14'0 0.0
2017-Dec-09 01:28N 22°31' E 120°14'0 0.0
2017-Dec-09 00:58N 22°31' E 120°14'0 0.3
2017-Dec-09 00:28N 22°30' E 120°14'0 0.3
2017-Dec-08 23:58N 22°30' E 120°14'0 0.2
2017-Dec-08 23:28N 22°30' E 120°14'0 0.2
2017-Dec-08 22:58N 22°30' E 120°14'0 0.1
2017-Dec-08 22:25N 22°30' E 120°14'0 0.1
2017-Dec-08 21:59N 22°30' E 120°14'0 0.0
2017-Dec-08 21:28N 22°30' E 120°14'0 0.1
2017-Dec-08 20:58N 22°30' E 120°14'0 0.1
2017-Dec-08 20:28N 22°30' E 120°14'0 0.1
2017-Dec-08 19:59N 22°30' E 120°14'0 0.1
2017-Dec-08 19:28N 22°30' E 120°14'0 0.1
2017-Dec-08 18:58N 22°30' E 120°14'0 0.0
2017-Dec-08 18:28N 22°30' E 120°14'0 0.0
2017-Dec-08 17:58N 22°30' E 120°14'0 0.0
2017-Dec-08 17:25N 22°30' E 120°14'0 0.0
2017-Dec-08 16:58N 22°30' E 120°14'0 0.1
2017-Dec-08 16:28N 22°30' E 120°14'0 0.1
2017-Dec-08 15:58N 22°30' E 120°14'0 0.0
2017-Dec-08 15:28N 22°30' E 120°14'0 0.0
2017-Dec-08 14:58N 22°30' E 120°14'0 0.0
2017-Dec-08 14:28N 22°30' E 120°14'0 0.0
2017-Dec-08 13:58N 22°30' E 120°14'0 0.0
2017-Dec-08 13:28N 22°30' E 120°14'0 0.0
2017-Dec-08 12:59N 22°30' E 120°14'0 0.0
2017-Dec-08 12:28N 22°30' E 120°14'0 0.1
2017-Dec-08 11:58N 22°30' E 120°14'0 0.1
2017-Dec-08 11:28N 22°30' E 120°14'0 0.0
2017-Dec-08 10:58N 22°30' E 120°14'0 0.0
2017-Dec-08 10:28N 22°30' E 120°14'0 0.0
2017-Dec-08 09:58N 22°30' E 120°14'0 0.0
2017-Dec-08 09:28N 22°30' E 120°14'0 0.0
2017-Dec-08 08:59N 22°30' E 120°14'0 0.0
2017-Dec-08 08:28N 22°30' E 120°14'0 0.1
2017-Dec-08 07:58N 22°30' E 120°14'0 0.0
2017-Dec-08 07:25N 22°30' E 120°14'0 0.1
2017-Dec-08 06:59N 22°30' E 120°14'0 0.1
2017-Dec-08 06:29N 22°30' E 120°14'0 0.1
2017-Dec-08 05:59N 22°30' E 120°14'0 0.0
2017-Dec-08 05:26N 22°30' E 120°14'0 0.0
2017-Dec-08 04:59N 22°30' E 120°14'0 0.0
2017-Dec-08 04:29N 22°30' E 120°14'0 0.1
2017-Dec-08 03:59N 22°30' E 120°14'0 0.1
2017-Dec-08 03:29N 22°30' E 120°14'0 0.1
2017-Dec-08 02:59N 22°30' E 120°14'0 0.0
2017-Dec-08 02:29N 22°30' E 120°14'0 0.0
2017-Dec-08 01:59N 22°30' E 120°14'0 0.0
2017-Dec-08 01:29N 22°30' E 120°14'0 0.0
2017-Dec-08 00:59N 22°30' E 120°14'0 0.0
2017-Dec-08 00:29N 22°30' E 120°14'0 0.0
2017-Dec-07 23:59N 22°30' E 120°14'0 0.1
2017-Dec-07 23:29N 22°30' E 120°14'0 0.0
2017-Dec-07 22:56N 22°30' E 120°14'0 0.0
2017-Dec-07 22:29N 22°30' E 120°14'0 0.0
2017-Dec-07 21:59N 22°30' E 120°14'0 0.0
2017-Dec-07 21:29N 22°30' E 120°14'0 0.0
2017-Dec-07 20:59N 22°30' E 120°14'0 0.0
2017-Dec-07 20:29N 22°30' E 120°14'0 0.0
2017-Dec-07 19:59N 22°30' E 120°14'0 0.0
2017-Dec-07 19:29N 22°30' E 120°14'0 0.0
2017-Dec-07 18:59N 22°30' E 120°14'0 0.0
2017-Dec-07 18:29N 22°30' E 120°14'0 0.0
2017-Dec-07 17:59N 22°30' E 120°14'0 0.0
2017-Dec-07 17:29N 22°30' E 120°14'0 0.0
2017-Dec-07 16:59N 22°30' E 120°14'0 0.0
2017-Dec-07 16:29N 22°30' E 120°14'0 0.0
2017-Dec-07 15:59N 22°30' E 120°14'0 0.0
2017-Dec-07 15:29N 22°30' E 120°14'0 0.0
2017-Dec-07 14:59N 22°30' E 120°14'0 0.0
2017-Dec-07 14:29N 22°30' E 120°14'0 0.1
2017-Dec-07 13:59N 22°30' E 120°14'0 0.0
2017-Dec-07 13:29N 22°30' E 120°14'0 0.0
2017-Dec-07 12:59N 22°30' E 120°14'0 0.0
2017-Dec-07 12:29N 22°30' E 120°14'0 0.0
2017-Dec-07 11:59N 22°30' E 120°14'0 0.1
2017-Dec-07 11:29N 22°30' E 120°14'0 0.0
2017-Dec-07 10:59N 22°30' E 120°14'0 0.1
2017-Dec-07 10:29N 22°30' E 120°14'0 0.1
2017-Dec-07 09:59N 22°30' E 120°14'0 0.1
2017-Dec-07 09:29N 22°30' E 120°14'0 0.0
2017-Dec-07 08:59N 22°30' E 120°14'0 0.0
2017-Dec-07 08:29N 22°30' E 120°14'0 0.1
2017-Dec-07 07:59N 22°30' E 120°14'0 0.1
2017-Dec-07 07:29N 22°30' E 120°14'0 0.0
2017-Dec-07 06:59N 22°30' E 120°14'0 0.0
2017-Dec-07 06:29N 22°30' E 120°14'0 0.0
2017-Dec-07 05:59N 22°30' E 120°14'0 0.0
2017-Dec-07 05:29N 22°30' E 120°14'0 0.0
2017-Dec-07 04:59N 22°30' E 120°14'0 0.3
2017-Dec-07 04:29N 22°30' E 120°14'0 0.5
2017-Dec-07 04:00N 22°31' E 120°14'2 3.2
2017-Dec-07 03:30N 22°31' E 120°13'4 7.7
2017-Dec-07 03:00N 22°31' E 120°08'510.9
2017-Dec-07 02:30N 22°30' E 120°03'510.3
2017-Dec-07 02:00N 22°29' E 119°57'5 9.8
2017-Dec-07 01:30N 22°27' E 119°52'5 9.1
2017-Dec-07 00:59N 22°26' E 119°47'12 8.4
2017-Dec-06 23:35N 22°23' E 119°35'1 9.0
2017-Dec-06 23:26N 22°22' E 119°34'5 9.4
2017-Dec-06 22:55N 22°22' E 119°28'5 9.7
2017-Dec-06 22:25N 22°21' E 119°23'  
Track history (hours):
 
Tides and Currents Weather Stations Pressure Air Temp Water Temp Dewpoint Dewpoint Depression Visibility Wind Speed Wind Dir Waves Ship Positions

Hangzhou Bay Bridge

Last reported at 2017-Dec-15 18:35 UTC. Time now 2017-Dec-15 20:03 UTC.
Position N 23°53' E 118°20'.

Length 335 m; draft 8.3 m.

Type: Ship (hazmat cat D). MMSI: 373932000.

Date/timePositionNaut miles runAvg speedWind from/ knotsBaromVisibWave heightAir tempDewpointWater temp
2017-Dec-15 18:35N 23°53' E 118°20'211.9
2017-Dec-15 18:24N 23°55' E 118°20'512.3
2017-Dec-15 18:00N 23°60' E 118°20'612.0
2017-Dec-15 17:30N 24°06' E 118°20'510.9
2017-Dec-15 17:00N 24°11' E 118°18'611.5
2017-Dec-15 16:30N 24°16' E 118°15'611.7
2017-Dec-15 16:00N 24°20' E 118°10'611.5
2017-Dec-15 15:30N 24°24' E 118°06'5 9.9
2017-Dec-15 15:00N 24°26' E 118°01'0 0.8
2017-Dec-15 14:30N 24°27' E 118°01'0 0.0
2017-Dec-15 14:00N 24°27' E 118°01'0 0.0
2017-Dec-15 13:30N 24°27' E 118°01'0 0.0
2017-Dec-15 13:00N 24°27' E 118°01'0 0.0
2017-Dec-15 12:30N 24°27' E 118°01'0 0.1
2017-Dec-15 12:00N 24°27' E 118°01'0 0.1
2017-Dec-15 11:27N 24°27' E 118°01'0 0.0
2017-Dec-15 10:57N 24°27' E 118°01'0 0.0
2017-Dec-15 10:30N 24°27' E 118°01'0 0.1
2017-Dec-15 09:54N 24°27' E 118°01'0 0.1
2017-Dec-15 09:27N 24°27' E 118°01'0 0.0
2017-Dec-15 08:48N 24°27' E 118°01'0 0.0
2017-Dec-15 08:24N 24°27' E 118°01'0 0.0
2017-Dec-15 08:00N 24°27' E 118°01'0 0.0
2017-Dec-15 07:30N 24°27' E 118°01'0 0.0
2017-Dec-15 06:57N 24°27' E 118°01'0 0.0
2017-Dec-15 06:30N 24°27' E 118°01'0 0.0
2017-Dec-15 06:00N 24°27' E 118°01'2 4.5
2017-Dec-15 05:30N 24°26' E 118°03'5 9.8
2017-Dec-15 05:00N 24°23' E 118°07'4 7.5
2017-Dec-15 04:30N 24°20' E 118°10'3 7.0
2017-Dec-15 04:00N 24°18' E 118°13'14 9.6
2017-Dec-15 02:30N 24°06' E 118°22'14 9.0
2017-Dec-15 00:56N 23°54' E 118°30'5 5.9
2017-Dec-15 00:08N 23°58' E 118°31'112 8.3
2017-Dec-14 10:35N 22°35' E 119°52'111.0
2017-Dec-14 10:29N 22°35' E 119°53'511.3
2017-Dec-14 10:00N 22°34' E 119°59'611.2
2017-Dec-14 09:30N 22°33' E 120°05'510.9
2017-Dec-14 09:00N 22°33' E 120°11'511.0
2017-Dec-14 08:30N 22°33' E 120°17'3 5.4
2017-Dec-14 08:00N 22°33' E 120°19'1 1.0
2017-Dec-14 07:27N 22°33' E 120°20'0 0.0
2017-Dec-14 07:00N 22°33' E 120°20'0 0.0
2017-Dec-14 06:27N 22°33' E 120°20'0 0.0
2017-Dec-14 06:00N 22°33' E 120°20'0 0.0
2017-Dec-14 05:30N 22°33' E 120°20'0 0.0
2017-Dec-14 05:00N 22°33' E 120°20'0 0.0
2017-Dec-14 04:30N 22°33' E 120°20'0 0.0
2017-Dec-14 04:00N 22°33' E 120°20'0 0.0
2017-Dec-14 03:30N 22°33' E 120°20'0 0.0
2017-Dec-14 03:00N 22°33' E 120°20'0 0.0
2017-Dec-14 02:27N 22°33' E 120°20'0 0.0
2017-Dec-14 01:57N 22°33' E 120°20'1 1.9
2017-Dec-14 01:30N 22°33' E 120°19'3 6.3
2017-Dec-14 01:01N 22°32' E 120°15'1 2.1
2017-Dec-14 00:30N 22°32' E 120°14'1 2.3
2017-Dec-14 00:00N 22°31' E 120°13'1 1.8
2017-Dec-13 23:30N 22°31' E 120°14'1 0.9
2017-Dec-13 22:59N 22°30' E 120°14'0 0.3
2017-Dec-13 22:28N 22°30' E 120°14'0 0.2
2017-Dec-13 21:58N 22°30' E 120°14'0 0.1
2017-Dec-13 21:28N 22°30' E 120°14'0 0.1
2017-Dec-13 20:58N 22°30' E 120°14'0 0.0
2017-Dec-13 20:29N 22°30' E 120°14'0 0.1
2017-Dec-13 19:58N 22°30' E 120°14'0 0.0
2017-Dec-13 19:28N 22°30' E 120°14'0 0.0
2017-Dec-13 18:58N 22°30' E 120°14'0 0.0
2017-Dec-13 18:28N 22°30' E 120°14'0 0.0
2017-Dec-13 17:58N 22°30' E 120°14'0 0.1
2017-Dec-13 17:28N 22°30' E 120°14'0 0.0
2017-Dec-13 16:58N 22°30' E 120°14'0 0.0
2017-Dec-13 16:28N 22°30' E 120°14'0 0.0
2017-Dec-13 15:58N 22°30' E 120°14'0 0.0
2017-Dec-13 15:28N 22°30' E 120°14'0 0.1
2017-Dec-13 14:58N 22°30' E 120°14'0 0.1
2017-Dec-13 14:28N 22°30' E 120°14'0 0.0
2017-Dec-13 13:59N 22°30' E 120°14'0 0.2
2017-Dec-13 13:28N 22°31' E 120°14'0 0.2
2017-Dec-13 12:58N 22°31' E 120°14'0 0.0
2017-Dec-13 12:28N 22°31' E 120°14'0 0.0
2017-Dec-13 11:58N 22°31' E 120°14'0 0.0
2017-Dec-13 11:29N 22°31' E 120°14'0 0.0
2017-Dec-13 10:58N 22°31' E 120°14'0 0.0
2017-Dec-13 10:28N 22°31' E 120°14'0 0.0
2017-Dec-13 09:58N 22°31' E 120°14'0 0.0
2017-Dec-13 09:28N 22°31' E 120°14'0 0.0
2017-Dec-13 08:58N 22°31' E 120°14'0 0.1
2017-Dec-13 08:28N 22°31' E 120°14'0 0.1
2017-Dec-13 07:58N 22°31' E 120°14'0 0.0
2017-Dec-13 07:28N 22°30' E 120°14'0 0.0
2017-Dec-13 06:58N 22°30' E 120°14'0 0.0
2017-Dec-13 06:28N 22°30' E 120°14'0 0.0
2017-Dec-13 05:58N 22°30' E 120°14'0 0.0
2017-Dec-13 05:28N 22°30' E 120°14'0 0.1
2017-Dec-13 04:58N 22°30' E 120°14'0 0.0
2017-Dec-13 04:28N 22°30' E 120°14'0 0.0
2017-Dec-13 03:58N 22°30' E 120°14'0 0.1
2017-Dec-13 03:28N 22°30' E 120°14'0 0.0
2017-Dec-13 02:58N 22°30' E 120°14'0 0.0
2017-Dec-13 02:28N 22°30' E 120°14'0 0.2
2017-Dec-13 01:58N 22°30' E 120°14'0 0.0
2017-Dec-13 01:28N 22°30' E 120°14'0 0.1
2017-Dec-13 00:58N 22°30' E 120°14'0 0.0
2017-Dec-13 00:28N 22°30' E 120°14'0 0.1
2017-Dec-12 23:58N 22°30' E 120°14'0 0.1
2017-Dec-12 23:28N 22°30' E 120°14'0 0.0
2017-Dec-12 22:58N 22°30' E 120°14'0 0.0
2017-Dec-12 22:28N 22°30' E 120°14'0 0.1
2017-Dec-12 21:52N 22°30' E 120°14'0 0.1
2017-Dec-12 21:28N 22°30' E 120°14'0 0.2
2017-Dec-12 20:58N 22°30' E 120°14'0 0.1
2017-Dec-12 20:28N 22°30' E 120°14'0 0.1
2017-Dec-12 19:58N 22°30' E 120°14'0 0.0
2017-Dec-12 19:28N 22°30' E 120°14'0 0.1
2017-Dec-12 18:58N 22°30' E 120°14'0 0.0
2017-Dec-12 18:28N 22°30' E 120°14'0 0.1
2017-Dec-12 17:58N 22°30' E 120°14'0 0.0
2017-Dec-12 17:28N 22°30' E 120°14'0 0.0
2017-Dec-12 16:58N 22°30' E 120°14'0 0.0
2017-Dec-12 16:28N 22°30' E 120°14'0 0.0
2017-Dec-12 15:58N 22°30' E 120°14'0 0.0
2017-Dec-12 15:28N 22°30' E 120°14'0 0.1
2017-Dec-12 14:58N 22°30' E 120°14'0 0.0
2017-Dec-12 14:28N 22°30' E 120°14'0 0.0
2017-Dec-12 13:58N 22°30' E 120°14'0 0.1
2017-Dec-12 13:22N 22°30' E 120°14'0 0.1
2017-Dec-12 12:58N 22°30' E 120°14'0 0.2
2017-Dec-12 12:16N 22°30' E 120°14'0 0.2
2017-Dec-12 11:52N 22°30' E 120°14'0 0.0
2017-Dec-12 11:22N 22°30' E 120°14'0 0.2
2017-Dec-12 10:58N 22°30' E 120°14'0 0.0
2017-Dec-12 10:28N 22°30' E 120°14'0 0.1
2017-Dec-12 09:58N 22°30' E 120°14'0 0.0
2017-Dec-12 09:28N 22°30' E 120°14'0 0.1
2017-Dec-12 08:52N 22°30' E 120°14'0 0.1
2017-Dec-12 08:28N 22°30' E 120°14'0 0.1
2017-Dec-12 07:58N 22°30' E 120°14'0 0.1
2017-Dec-12 07:28N 22°30' E 120°14'0 0.0
2017-Dec-12 06:58N 22°30' E 120°14'0 0.0
2017-Dec-12 06:28N 22°30' E 120°14'0 0.0
2017-Dec-12 05:58N 22°30' E 120°14'0 0.1
2017-Dec-12 05:28N 22°30' E 120°14'0 0.0
2017-Dec-12 04:58N 22°30' E 120°14'0 0.1
2017-Dec-12 04:28N 22°30' E 120°14'0 0.1
2017-Dec-12 03:58N 22°30' E 120°14'0 0.0
2017-Dec-12 03:28N 22°30' E 120°14'0 0.0
2017-Dec-12 02:55N 22°30' E 120°14'0 0.0
2017-Dec-12 02:28N 22°30' E 120°14'0 0.0
2017-Dec-12 01:58N 22°30' E 120°14'0 0.1
2017-Dec-12 01:28N 22°30' E 120°14'0 0.0
2017-Dec-12 00:58N 22°30' E 120°14'0 0.0
2017-Dec-12 00:28N 22°30' E 120°14'0 0.0
2017-Dec-11 23:58N 22°30' E 120°14'0 0.0
2017-Dec-11 23:28N 22°30' E 120°14'0 0.2
2017-Dec-11 22:58N 22°30' E 120°14'0 0.1
2017-Dec-11 22:28N 22°30' E 120°14'0 0.1
2017-Dec-11 21:58N 22°31' E 120°14'0 0.0
2017-Dec-11 21:28N 22°31' E 120°14'0 0.1
2017-Dec-11 20:58N 22°30' E 120°14'0 0.3
2017-Dec-11 20:28N 22°30' E 120°14'0 0.2
2017-Dec-11 19:58N 22°30' E 120°14'0 0.1
2017-Dec-11 19:22N 22°30' E 120°14'0 0.0
2017-Dec-11 18:52N 22°30' E 120°14'0 0.0
2017-Dec-11 18:28N 22°30' E 120°14'0 0.0
2017-Dec-11 17:49N 22°30' E 120°14'0 0.0
2017-Dec-11 17:28N 22°30' E 120°14'0 0.0
2017-Dec-11 16:58N 22°30' E 120°14'0 0.0
2017-Dec-11 16:28N 22°30' E 120°14'0 0.1
2017-Dec-11 15:58N 22°30' E 120°14'0 0.0
2017-Dec-11 15:28N 22°30' E 120°14'0 0.1
2017-Dec-11 14:58N 22°30' E 120°14'0 0.0
2017-Dec-11 14:22N 22°30' E 120°14'0 0.0
2017-Dec-11 13:58N 22°30' E 120°14'0 0.0
2017-Dec-11 13:25N 22°30' E 120°14'0 0.0
2017-Dec-11 12:58N 22°30' E 120°14'0 0.0
2017-Dec-11 12:28N 22°30' E 120°14'0 0.0
2017-Dec-11 11:58N 22°30' E 120°14'0 0.1
2017-Dec-11 11:28N 22°30' E 120°14'0 0.1
2017-Dec-11 10:58N 22°30' E 120°14'0 0.0
2017-Dec-11 10:28N 22°30' E 120°14'0 0.0
2017-Dec-11 09:58N 22°30' E 120°14'0 0.3
2017-Dec-11 09:28N 22°30' E 120°14'0 0.3
2017-Dec-11 08:58N 22°31' E 120°14'0 0.0
2017-Dec-11 08:28N 22°31' E 120°14'0 0.0
2017-Dec-11 07:40N 22°31' E 120°14'0 0.0
2017-Dec-11 07:28N 22°31' E 120°14'0 0.1
2017-Dec-11 06:58N 22°31' E 120°14'0 0.1
2017-Dec-11 06:28N 22°31' E 120°14'0 0.1
2017-Dec-11 05:58N 22°31' E 120°14'0 0.1
2017-Dec-11 05:28N 22°30' E 120°14'0 0.1
2017-Dec-11 04:58N 22°30' E 120°14'0 0.1
2017-Dec-11 04:28N 22°30' E 120°14'0 0.3
2017-Dec-11 03:58N 22°30' E 120°14'0 0.1
2017-Dec-11 03:28N 22°30' E 120°14'0 0.0
2017-Dec-11 02:58N 22°30' E 120°14'0 0.0
2017-Dec-11 02:28N 22°30' E 120°14'0 0.0
2017-Dec-11 01:55N 22°30' E 120°14'0 0.0
2017-Dec-11 01:28N 22°30' E 120°14'0 0.0
2017-Dec-11 00:58N 22°30' E 120°14'0 0.0
2017-Dec-11 00:28N 22°30' E 120°14'0 0.1
2017-Dec-10 23:58N 22°30' E 120°14'0 0.0
2017-Dec-10 23:28N 22°30' E 120°14'0 0.0
2017-Dec-10 22:58N 22°30' E 120°14'0 0.0
2017-Dec-10 22:28N 22°30' E 120°14'0 0.1
2017-Dec-10 21:58N 22°30' E 120°14'0 0.1
2017-Dec-10 21:28N 22°30' E 120°14'0 0.0
2017-Dec-10 20:58N 22°30' E 120°14'0 0.0
2017-Dec-10 20:28N 22°30' E 120°14'0 0.0
2017-Dec-10 19:58N 22°30' E 120°14'0 0.0
2017-Dec-10 19:28N 22°30' E 120°14'0 0.0
2017-Dec-10 18:58N 22°30' E 120°14'0 0.0
2017-Dec-10 18:28N 22°30' E 120°14'0 0.0
2017-Dec-10 17:58N 22°30' E 120°14'0 0.0
2017-Dec-10 17:29N 22°30' E 120°14'0 0.0
2017-Dec-10 16:58N 22°30' E 120°14'0 0.0
2017-Dec-10 16:29N 22°30' E 120°14'0 0.1
2017-Dec-10 15:58N 22°30' E 120°14'0 0.0
2017-Dec-10 15:28N 22°30' E 120°14'0 0.0
2017-Dec-10 14:58N 22°30' E 120°14'0 0.1
2017-Dec-10 14:28N 22°30' E 120°14'0 0.0
2017-Dec-10 13:56N 22°30' E 120°14'0 0.0
2017-Dec-10 13:29N 22°30' E 120°14'0 0.0
2017-Dec-10 12:59N 22°30' E 120°14'0 0.0
2017-Dec-10 12:28N 22°30' E 120°14'0 0.0
2017-Dec-10 11:58N 22°30' E 120°14'0 0.0
2017-Dec-10 11:28N 22°30' E 120°14'0 0.0
2017-Dec-10 10:58N 22°30' E 120°14'0 0.0
2017-Dec-10 10:28N 22°30' E 120°14'0 0.0
2017-Dec-10 09:58N 22°30' E 120°14'0 0.1
2017-Dec-10 09:29N 22°30' E 120°14'0 0.0
2017-Dec-10 08:58N 22°30' E 120°14'0 0.0
2017-Dec-10 08:28N 22°30' E 120°14'0 0.0
2017-Dec-10 07:55N 22°30' E 120°14'0 0.1
2017-Dec-10 07:30N 22°30' E 120°14'0 0.1
2017-Dec-10 06:58N 22°30' E 120°14'0 0.0
2017-Dec-10 06:28N 22°30' E 120°14'0 0.0
2017-Dec-10 05:58N 22°30' E 120°14'0 0.0
2017-Dec-10 05:28N 22°30' E 120°14'0 0.0
2017-Dec-10 04:58N 22°30' E 120°14'0 0.0
2017-Dec-10 04:28N 22°30' E 120°14'0 0.0
2017-Dec-10 03:58N 22°30' E 120°14'0 0.0
2017-Dec-10 03:28N 22°30' E 120°14'0 0.1
2017-Dec-10 02:58N 22°30' E 120°14'0 0.0
2017-Dec-10 02:28N 22°30' E 120°14'0 0.0
2017-Dec-10 01:58N 22°30' E 120°14'0 0.0
2017-Dec-10 01:28N 22°30' E 120°14'0 0.0
2017-Dec-10 00:58N 22°30' E 120°14'0 0.1
2017-Dec-10 00:28N 22°30' E 120°14'0 0.0
2017-Dec-09 23:58N 22°30' E 120°14'0 0.0
2017-Dec-09 23:28N 22°30' E 120°14'0 0.0
2017-Dec-09 22:58N 22°30' E 120°14'0 0.0
2017-Dec-09 22:28N 22°30' E 120°14'0 0.0
2017-Dec-09 21:58N 22°30' E 120°14'0 0.0
2017-Dec-09 21:29N 22°30' E 120°14'0 0.1
2017-Dec-09 20:58N 22°30' E 120°14'0 0.0
2017-Dec-09 20:28N 22°30' E 120°14'0 0.0
2017-Dec-09 19:58N 22°30' E 120°14'0 0.1
2017-Dec-09 19:28N 22°30' E 120°14'0 0.0
2017-Dec-09 18:58N 22°30' E 120°14'0 0.0
2017-Dec-09 18:28N 22°30' E 120°14'0 0.1
2017-Dec-09 17:58N 22°30' E 120°14'0 0.0
2017-Dec-09 17:28N 22°30' E 120°14'0 0.1
2017-Dec-09 16:58N 22°30' E 120°14'0 0.0
2017-Dec-09 16:28N 22°30' E 120°14'0 0.1
2017-Dec-09 15:59N 22°30' E 120°14'0 0.0
2017-Dec-09 15:28N 22°30' E 120°14'0 0.0
2017-Dec-09 14:58N 22°30' E 120°14'0 0.1
2017-Dec-09 14:25N 22°30' E 120°14'0 0.1
2017-Dec-09 13:58N 22°30' E 120°14'0 0.0
2017-Dec-09 13:28N 22°30' E 120°14'0 0.0
2017-Dec-09 12:59N 22°30' E 120°14'0 0.0
2017-Dec-09 12:28N 22°30' E 120°14'0 0.0
2017-Dec-09 11:58N 22°30' E 120°14'0 0.1
2017-Dec-09 11:28N 22°30' E 120°14'0 0.1
2017-Dec-09 10:58N 22°30' E 120°14'0 0.0
2017-Dec-09 10:28N 22°30' E 120°14'0 0.0
2017-Dec-09 09:58N 22°30' E 120°14'0 0.0
2017-Dec-09 09:28N 22°30' E 120°14'0 0.1
2017-Dec-09 08:58N 22°30' E 120°14'0 0.0
2017-Dec-09 08:28N 22°30' E 120°14'0 0.0
2017-Dec-09 07:58N 22°30' E 120°14'0 0.0
2017-Dec-09 07:28N 22°30' E 120°14'0 0.0
2017-Dec-09 06:58N 22°30' E 120°14'0 0.2
2017-Dec-09 06:28N 22°30' E 120°14'0 0.1
2017-Dec-09 05:58N 22°30' E 120°14'0 0.2
2017-Dec-09 05:28N 22°30' E 120°14'0 0.2
2017-Dec-09 04:58N 22°30' E 120°14'0 0.2
2017-Dec-09 04:28N 22°30' E 120°14'0 0.1
2017-Dec-09 03:58N 22°30' E 120°14'0 0.2
2017-Dec-09 03:28N 22°31' E 120°14'0 0.2
2017-Dec-09 02:58N 22°31' E 120°14'0 0.1
2017-Dec-09 02:28N 22°31' E 120°14'0 0.1
2017-Dec-09 01:58N 22°31' E 120°14'0 0.0
2017-Dec-09 01:28N 22°31' E 120°14'0 0.0
2017-Dec-09 00:58N 22°31' E 120°14'0 0.3
2017-Dec-09 00:28N 22°30' E 120°14'0 0.3
2017-Dec-08 23:58N 22°30' E 120°14'0 0.2
2017-Dec-08 23:28N 22°30' E 120°14'0 0.2
2017-Dec-08 22:58N 22°30' E 120°14'0 0.1
2017-Dec-08 22:25N 22°30' E 120°14'0 0.1
2017-Dec-08 21:59N 22°30' E 120°14'0 0.0
2017-Dec-08 21:28N 22°30' E 120°14'0 0.1
2017-Dec-08 20:58N 22°30' E 120°14'0 0.1
2017-Dec-08 20:28N 22°30' E 120°14'0 0.1
2017-Dec-08 19:59N 22°30' E 120°14'0 0.1
2017-Dec-08 19:28N 22°30' E 120°14'0 0.1
2017-Dec-08 18:58N 22°30' E 120°14'0 0.0
2017-Dec-08 18:28N 22°30' E 120°14'0 0.0
2017-Dec-08 17:58N 22°30' E 120°14'0 0.0
2017-Dec-08 17:25N 22°30' E 120°14'0 0.0
2017-Dec-08 16:58N 22°30' E 120°14'0 0.1
2017-Dec-08 16:28N 22°30' E 120°14'0 0.1
2017-Dec-08 15:58N 22°30' E 120°14'0 0.0
2017-Dec-08 15:28N 22°30' E 120°14'0 0.0
2017-Dec-08 14:58N 22°30' E 120°14'0 0.0
2017-Dec-08 14:28N 22°30' E 120°14'0 0.0
2017-Dec-08 13:58N 22°30' E 120°14'0 0.0
2017-Dec-08 13:28N 22°30' E 120°14'0 0.0
2017-Dec-08 12:59N 22°30' E 120°14'0 0.0
2017-Dec-08 12:28N 22°30' E 120°14'0 0.1
2017-Dec-08 11:58N 22°30' E 120°14'0 0.1
2017-Dec-08 11:28N 22°30' E 120°14'0 0.0
2017-Dec-08 10:58N 22°30' E 120°14'0 0.0
2017-Dec-08 10:28N 22°30' E 120°14'0 0.0
2017-Dec-08 09:58N 22°30' E 120°14'0 0.0
2017-Dec-08 09:28N 22°30' E 120°14'0 0.0
2017-Dec-08 08:59N 22°30' E 120°14'0 0.0
2017-Dec-08 08:28N 22°30' E 120°14'0 0.1
2017-Dec-08 07:58N 22°30' E 120°14'0 0.0
2017-Dec-08 07:25N 22°30' E 120°14'0 0.1
2017-Dec-08 06:59N 22°30' E 120°14'0 0.1
2017-Dec-08 06:29N 22°30' E 120°14'0 0.1
2017-Dec-08 05:59N 22°30' E 120°14'0 0.0
2017-Dec-08 05:26N 22°30' E 120°14'0 0.0
2017-Dec-08 04:59N 22°30' E 120°14'0 0.0
2017-Dec-08 04:29N 22°30' E 120°14'0 0.1
2017-Dec-08 03:59N 22°30' E 120°14'0 0.1
2017-Dec-08 03:29N 22°30' E 120°14'0 0.1
2017-Dec-08 02:59N 22°30' E 120°14'0 0.0
2017-Dec-08 02:29N 22°30' E 120°14'0 0.0
2017-Dec-08 01:59N 22°30' E 120°14'0 0.0
2017-Dec-08 01:29N 22°30' E 120°14'0 0.0
2017-Dec-08 00:59N 22°30' E 120°14'0 0.0
2017-Dec-08 00:29N 22°30' E 120°14'0 0.0
2017-Dec-07 23:59N 22°30' E 120°14'0 0.1
2017-Dec-07 23:29N 22°30' E 120°14'0 0.0
2017-Dec-07 22:56N 22°30' E 120°14'0 0.0
2017-Dec-07 22:29N 22°30' E 120°14'0 0.0
2017-Dec-07 21:59N 22°30' E 120°14'0 0.0
2017-Dec-07 21:29N 22°30' E 120°14'0 0.0
2017-Dec-07 20:59N 22°30' E 120°14'0 0.0
2017-Dec-07 20:29N 22°30' E 120°14'0 0.0
2017-Dec-07 19:59N 22°30' E 120°14'0 0.0
2017-Dec-07 19:29N 22°30' E 120°14'0 0.0
2017-Dec-07 18:59N 22°30' E 120°14'0 0.0
2017-Dec-07 18:29N 22°30' E 120°14'0 0.0
2017-Dec-07 17:59N 22°30' E 120°14'0 0.0
2017-Dec-07 17:29N 22°30' E 120°14'0 0.0
2017-Dec-07 16:59N 22°30' E 120°14'0 0.0
2017-Dec-07 16:29N 22°30' E 120°14'0 0.0
2017-Dec-07 15:59N 22°30' E 120°14'0 0.0
2017-Dec-07 15:29N 22°30' E 120°14'0 0.0
2017-Dec-07 14:59N 22°30' E 120°14'0 0.0
2017-Dec-07 14:29N 22°30' E 120°14'0 0.1
2017-Dec-07 13:59N 22°30' E 120°14'0 0.0
2017-Dec-07 13:29N 22°30' E 120°14'0 0.0
2017-Dec-07 12:59N 22°30' E 120°14'0 0.0
2017-Dec-07 12:29N 22°30' E 120°14'0 0.0
2017-Dec-07 11:59N 22°30' E 120°14'0 0.1
2017-Dec-07 11:29N 22°30' E 120°14'0 0.0
2017-Dec-07 10:59N 22°30' E 120°14'0 0.1
2017-Dec-07 10:29N 22°30' E 120°14'0 0.1
2017-Dec-07 09:59N 22°30' E 120°14'0 0.1
2017-Dec-07 09:29N 22°30' E 120°14'0 0.0
2017-Dec-07 08:59N 22°30' E 120°14'0 0.0
2017-Dec-07 08:29N 22°30' E 120°14'0 0.1
2017-Dec-07 07:59N 22°30' E 120°14'0 0.1
2017-Dec-07 07:29N 22°30' E 120°14'0 0.0
2017-Dec-07 06:59N 22°30' E 120°14'0 0.0
2017-Dec-07 06:29N 22°30' E 120°14'0 0.0
2017-Dec-07 05:59N 22°30' E 120°14'0 0.0
2017-Dec-07 05:29N 22°30' E 120°14'0 0.0
2017-Dec-07 04:59N 22°30' E 120°14'0 0.3
2017-Dec-07 04:29N 22°30' E 120°14'0 0.5
2017-Dec-07 04:00N 22°31' E 120°14'2 3.2
2017-Dec-07 03:30N 22°31' E 120°13'4 7.7
2017-Dec-07 03:00N 22°31' E 120°08'510.9
2017-Dec-07 02:30N 22°30' E 120°03'510.3
2017-Dec-07 02:00N 22°29' E 119°57'5 9.8
2017-Dec-07 01:30N 22°27' E 119°52'5 9.1
2017-Dec-07 00:59N 22°26' E 119°47'12 8.4
2017-Dec-06 23:35N 22°23' E 119°35'1 9.0
2017-Dec-06 23:26N 22°22' E 119°34'5 9.4
2017-Dec-06 22:55N 22°22' E 119°28'5 9.7
2017-Dec-06 22:25N 22°21' E 119°23'  

Dump ship's entire track history